Time;durP1;ratioP1;P1;durP2;ratioP2;P2;SDS_P1;SDS_P2;PMS_P1;PMS_P2;Temp;Humidity;BMP_temperature;BMP_pressure;BME280_temperature;BME280_humidity;BME280_pressure;Samples;Min_cycle;Max_cycle;Signal;HPM_P1;HPM_P2
2023/08/01 00:02:20;;;;;;;11.98;3.60;;;16.70;99.90;;;;;;5113233;27;20044;-82
2023/08/01 00:04:46;;;;;;;10.05;3.78;;;16.70;99.90;;;;;;5106114;27;20111;-82
2023/08/01 00:07:11;;;;;;;8.55;3.60;;;16.70;99.90;;;;;;5115149;27;20077;-82
2023/08/01 00:09:37;;;;;;;15.15;3.92;;;16.70;99.90;;;;;;5123479;27;20039;-82
2023/08/01 00:12:03;;;;;;;9.77;3.42;;;16.70;99.90;;;;;;5113792;27;20038;-82
2023/08/01 00:14:28;;;;;;;15.02;3.95;;;16.70;99.90;;;;;;5115474;27;20035;-82
2023/08/01 00:16:54;;;;;;;12.02;3.53;;;16.70;99.90;;;;;;5115358;27;20110;-82
2023/08/01 00:19:20;;;;;;;11.90;3.85;;;16.70;99.90;;;;;;5117669;27;20124;-82
2023/08/01 00:21:46;;;;;;;14.60;4.00;;;16.70;99.90;;;;;;5096652;27;20568;-82
2023/08/01 00:24:12;;;;;;;11.02;3.50;;;16.70;99.90;;;;;;5107670;27;20043;-83
2023/08/01 00:26:38;;;;;;;8.73;2.85;;;16.70;99.90;;;;;;5118906;27;20027;-81
2023/08/01 00:29:03;;;;;;;11.45;3.30;;;16.70;99.90;;;;;;5119765;27;20047;-82
2023/08/01 00:31:29;;;;;;;11.38;4.03;;;16.70;99.90;;;;;;5117585;27;20494;-81
2023/08/01 00:33:54;;;;;;;11.77;3.38;;;16.70;99.90;;;;;;5125445;27;20051;-82
2023/08/01 00:36:20;;;;;;;9.88;3.88;;;16.70;99.90;;;;;;5115164;27;20031;-82
2023/08/01 00:38:46;;;;;;;10.05;3.20;;;16.70;99.90;;;;;;5116665;27;20131;-82
2023/08/01 00:41:12;;;;;;;8.77;3.42;;;16.70;99.90;;;;;;5125018;27;20586;-81
2023/08/01 00:43:38;;;;;;;12.13;3.53;;;16.70;99.90;;;;;;5119154;27;20482;-82
2023/08/01 00:46:05;;;;;;;9.70;3.08;;;16.70;99.90;;;;;;5112269;27;20067;-81
2023/08/01 00:48:31;;;;;;;7.80;3.20;;;16.70;99.90;;;;;;5116324;27;20139;-82
2023/08/01 00:51:04;;;;;;;7.20;2.65;;;16.60;99.90;;;;;;5119297;27;20023;-82
2023/08/01 00:53:30;;;;;;;7.75;2.75;;;16.60;99.90;;;;;;5117222;27;20031;-82
2023/08/01 00:55:58;;;;;;;9.23;3.60;;;16.50;99.90;;;;;;5119466;27;20092;-81
2023/08/01 00:58:24;;;;;;;11.40;3.40;;;16.50;99.90;;;;;;5119079;27;20040;-82
2023/08/01 01:00:49;;;;;;;8.63;3.35;;;16.50;99.90;;;;;;5121430;27;20060;-82
2023/08/01 01:03:16;;;;;;;8.45;2.72;;;16.40;99.90;;;;;;5136424;27;20442;-82
2023/08/01 01:06:03;;;;;;;6.07;3.05;;;16.50;99.90;;;;;;5134157;27;20036;-82
2023/08/01 01:08:29;;;;;;;10.10;3.50;;;16.40;99.90;;;;;;5121642;27;20058;-82
2023/08/01 01:10:55;;;;;;;7.50;3.05;;;16.40;99.90;;;;;;5105238;27;20035;-82
2023/08/01 01:13:20;;;;;;;6.03;2.50;;;16.40;99.90;;;;;;5141167;27;20043;-82
2023/08/01 01:15:46;;;;;;;10.07;3.42;;;16.40;99.90;;;;;;5119974;27;20362;-82
2023/08/01 01:18:13;;;;;;;13.07;3.90;;;16.30;99.90;;;;;;5124257;27;20384;-82
2023/08/01 01:20:38;;;;;;;12.73;3.83;;;16.30;99.90;;;;;;5117538;27;20039;-82
2023/08/01 01:23:06;;;;;;;11.45;3.17;;;16.20;99.90;;;;;;5107072;27;20050;-82
2023/08/01 01:25:32;;;;;;;6.38;3.30;;;16.20;99.90;;;;;;5138713;27;20122;-82
2023/08/01 01:27:59;;;;;;;12.30;3.50;;;16.20;99.90;;;;;;5115542;27;20027;-82
2023/08/01 01:30:26;;;;;;;8.55;3.58;;;16.10;99.90;;;;;;5136819;27;20038;-82
2023/08/01 01:32:53;;;;;;;10.05;3.38;;;16.10;99.90;;;;;;5098215;27;20143;-82
2023/08/01 01:35:18;;;;;;;11.55;3.60;;;16.10;99.90;;;;;;5120193;27;20042;-82
2023/08/01 01:37:44;;;;;;;10.43;3.65;;;16.10;99.90;;;;;;5118300;27;20039;-82
2023/08/01 01:40:10;;;;;;;8.38;3.40;;;16.10;99.90;;;;;;5138729;27;20127;-82
2023/08/01 01:42:36;;;;;;;10.25;3.30;;;16.10;99.90;;;;;;5134371;27;20034;-82
2023/08/01 01:45:02;;;;;;;7.82;3.83;;;16.10;99.90;;;;;;5119560;27;20023;-82
2023/08/01 01:47:28;;;;;;;9.45;3.92;;;16.10;99.90;;;;;;5137743;27;20034;-82
2023/08/01 01:49:53;;;;;;;8.32;3.45;;;16.10;99.90;;;;;;5138772;27;20142;-82
2023/08/01 01:52:19;;;;;;;10.35;3.58;;;16.10;99.90;;;;;;5145421;27;20034;-82
2023/08/01 01:54:44;;;;;;;10.80;3.30;;;16.10;99.90;;;;;;5114849;27;20069;-82
2023/08/01 01:57:10;;;;;;;5.38;2.40;;;16.10;99.90;;;;;;5104530;27;20050;-82
2023/08/01 01:59:36;;;;;;;8.25;3.38;;;16.10;99.90;;;;;;5125517;27;20392;-82
2023/08/01 02:02:03;;;;;;;11.70;3.20;;;16.10;99.90;;;;;;5113946;27;20540;-82
2023/08/01 02:04:30;;;;;;;8.45;2.90;;;16.10;99.90;;;;;;5118040;27;20049;-82
2023/08/01 02:06:55;;;;;;;8.18;3.10;;;16.10;99.90;;;;;;5129482;27;20034;-82
2023/08/01 02:09:21;;;;;;;9.25;3.67;;;16.10;99.90;;;;;;5135553;27;20031;-82
2023/08/01 02:11:47;;;;;;;5.60;2.75;;;16.10;99.90;;;;;;5137012;27;20026;-82
2023/08/01 02:14:13;;;;;;;7.70;3.83;;;16.10;99.90;;;;;;5102054;27;20046;-82
2023/08/01 02:16:39;;;;;;;7.93;3.28;;;16.10;99.90;;;;;;5133910;27;20062;-82
2023/08/01 02:19:04;;;;;;;9.13;3.78;;;16.10;99.90;;;;;;5132027;27;20043;-82
2023/08/01 02:21:30;;;;;;;8.32;3.33;;;16.00;99.90;;;;;;5102934;27;20027;-82
2023/08/01 02:23:56;;;;;;;7.07;3.03;;;16.00;99.90;;;;;;5137702;27;20079;-82
2023/08/01 02:26:23;;;;;;;11.40;3.90;;;16.00;99.90;;;;;;5135271;27;20083;-82
2023/08/01 02:28:49;;;;;;;10.23;3.67;;;16.00;99.90;;;;;;5108391;27;20035;-82
2023/08/01 02:31:16;;;;;;;9.93;2.90;;;16.00;99.90;;;;;;5139365;27;20049;-82
2023/08/01 02:33:41;;;;;;;8.20;3.58;;;15.90;99.90;;;;;;5125385;27;20043;-82
2023/08/01 02:36:07;;;;;;;7.30;2.78;;;15.90;99.90;;;;;;5102690;27;20042;-82
2023/08/01 02:38:32;;;;;;;9.20;3.80;;;15.90;99.90;;;;;;5121231;27;20032;-82
2023/08/01 02:40:58;;;;;;;8.27;3.28;;;15.90;99.90;;;;;;5137695;27;20163;-82
2023/08/01 02:43:24;;;;;;;10.50;3.47;;;15.80;99.90;;;;;;5125181;27;20098;-82
2023/08/01 02:45:49;;;;;;;9.90;3.75;;;15.80;99.90;;;;;;5134991;27;20159;-82
2023/08/01 02:48:15;;;;;;;8.82;4.05;;;15.90;99.90;;;;;;5141684;27;20489;-82
2023/08/01 02:50:41;;;;;;;11.40;4.15;;;15.80;99.90;;;;;;5136201;27;20039;-82
2023/08/01 02:53:07;;;;;;;12.95;4.15;;;15.80;99.90;;;;;;5133470;27;20042;-82
2023/08/01 02:55:32;;;;;;;12.07;4.10;;;15.80;99.90;;;;;;5117339;27;20030;-82
2023/08/01 02:57:58;;;;;;;8.48;3.72;;;15.80;99.90;;;;;;5122317;27;20062;-82
2023/08/01 03:00:24;;;;;;;11.43;3.95;;;15.70;99.90;;;;;;5133312;27;20122;-82
2023/08/01 03:02:49;;;;;;;10.98;4.60;;;15.70;99.90;;;;;;5118979;27;20408;-81
2023/08/01 03:05:15;;;;;;;11.07;4.75;;;15.70;99.90;;;;;;5117484;27;20034;-82
2023/08/01 03:07:41;;;;;;;11.23;4.43;;;15.70;99.90;;;;;;5115131;27;20110;-82
2023/08/01 03:10:06;;;;;;;13.57;5.22;;;15.70;99.90;;;;;;5099155;27;20043;-82
2023/08/01 03:12:32;;;;;;;15.25;5.28;;;15.70;99.90;;;;;;5136432;27;20039;-82
2023/08/01 03:14:58;;;;;;;14.20;4.90;;;15.60;99.90;;;;;;5120754;27;20046;-82
2023/08/01 03:17:24;;;;;;;9.73;4.78;;;15.70;99.90;;;;;;5114540;27;20050;-82
2023/08/01 03:19:50;;;;;;;11.57;4.72;;;15.60;99.90;;;;;;5133562;27;20031;-82
2023/08/01 03:22:16;;;;;;;10.30;4.50;;;15.70;99.90;;;;;;5135204;27;20038;-82
2023/08/01 03:24:42;;;;;;;16.90;5.05;;;15.60;99.90;;;;;;5117913;27;20145;-82
2023/08/01 03:27:07;;;;;;;11.88;4.78;;;15.70;99.90;;;;;;5117414;27;20833;-82
2023/08/01 03:29:33;;;;;;;9.60;4.00;;;15.70;99.90;;;;;;5122254;27;20040;-82
2023/08/01 03:31:59;;;;;;;12.40;4.88;;;15.70;99.90;;;;;;5115149;27;20288;-82
2023/08/01 03:34:26;;;;;;;10.85;4.20;;;15.70;99.90;;;;;;5112653;28;20042;-82
2023/08/01 03:36:52;;;;;;;11.82;4.45;;;15.70;99.90;;;;;;5138738;27;20088;-82
2023/08/01 03:39:18;;;;;;;12.55;5.13;;;15.70;99.90;;;;;;5120405;27;20030;-82
2023/08/01 03:41:44;;;;;;;13.80;4.80;;;15.70;99.90;;;;;;5135442;27;20058;-82
2023/08/01 03:44:09;;;;;;;17.23;5.60;;;15.70;99.90;;;;;;5135071;27;20118;-82
2023/08/01 03:46:35;;;;;;;10.82;4.82;;;15.70;99.90;;;;;;5142532;27;20038;-82
2023/08/01 03:49:01;;;;;;;12.90;5.75;;;15.70;99.90;;;;;;5127756;27;20473;-82
2023/08/01 03:51:26;;;;;;;14.32;4.35;;;15.70;99.90;;;;;;5123511;27;20031;-82
2023/08/01 03:53:52;;;;;;;10.48;4.57;;;15.70;99.90;;;;;;5100971;27;20039;-82
2023/08/01 03:56:18;;;;;;;11.13;4.68;;;15.70;99.90;;;;;;5142585;27;20043;-81
2023/08/01 03:58:43;;;;;;;11.68;4.38;;;15.70;99.90;;;;;;5121828;27;20511;-82
2023/08/01 04:01:09;;;;;;;12.77;4.63;;;15.70;99.90;;;;;;5117023;27;20073;-82
2023/08/01 04:03:34;;;;;;;8.82;4.18;;;15.70;99.90;;;;;;5112983;27;20060;-82
2023/08/01 04:06:00;;;;;;;7.25;3.45;;;15.70;99.90;;;;;;5139363;27;20035;-82
2023/08/01 04:08:26;;;;;;;11.63;4.57;;;15.70;99.90;;;;;;5109482;27;20038;-82
2023/08/01 04:10:51;;;;;;;10.25;3.50;;;15.70;99.90;;;;;;5143388;27;20095;-82
2023/08/01 04:13:17;;;;;;;9.82;3.78;;;15.70;99.90;;;;;;5145436;27;20043;-82
2023/08/01 04:15:43;;;;;;;13.35;3.38;;;15.70;99.90;;;;;;5141621;27;20029;-82
2023/08/01 04:18:08;;;;;;;9.27;3.15;;;15.70;99.90;;;;;;5140771;27;20043;-82
2023/08/01 04:20:34;;;;;;;9.20;3.60;;;15.70;99.90;;;;;;5114012;27;20142;-82
2023/08/01 04:22:59;;;;;;;6.82;2.80;;;15.70;99.90;;;;;;5141483;27;20026;-82
2023/08/01 04:25:26;;;;;;;8.27;3.00;;;15.70;99.90;;;;;;5138137;27;20492;-82
2023/08/01 04:27:53;;;;;;;10.68;3.20;;;15.70;99.90;;;;;;5137954;27;20082;-82
2023/08/01 04:30:18;;;;;;;13.10;3.00;;;15.70;99.90;;;;;;5117417;27;20060;-82
2023/08/01 04:32:44;;;;;;;8.95;3.00;;;15.80;99.90;;;;;;5118547;27;20035;-82
2023/08/01 04:35:10;;;;;;;6.60;2.50;;;15.70;99.90;;;;;;5126385;27;20035;-82
2023/08/01 04:37:35;;;;;;;8.25;2.47;;;15.70;99.90;;;;;;5142177;27;20034;-82
2023/08/01 04:40:01;;;;;;;7.00;2.10;;;15.80;99.90;;;;;;5117171;27;20390;-82
2023/08/01 04:42:28;;;;;;;6.97;2.15;;;15.70;99.90;;;;;;5137628;27;20050;-82
2023/08/01 04:44:54;;;;;;;5.53;2.20;;;15.70;99.90;;;;;;5143211;27;20101;-82
2023/08/01 04:47:21;;;;;;;7.10;2.10;;;15.70;99.90;;;;;;5139896;27;20111;-82
2023/08/01 04:49:46;;;;;;;8.45;2.13;;;15.70;99.90;;;;;;5112429;27;20042;-81
2023/08/01 04:52:12;;;;;;;7.45;2.00;;;15.70;99.90;;;;;;5133343;27;20714;-82
2023/08/01 04:54:38;;;;;;;7.78;2.42;;;15.70;99.90;;;;;;5119234;27;20038;-82
2023/08/01 04:57:04;;;;;;;5.93;1.95;;;15.70;99.90;;;;;;5141515;27;20277;-82
2023/08/01 04:59:29;;;;;;;8.05;1.95;;;15.70;99.90;;;;;;5120794;27;20396;-82
2023/08/01 05:01:55;;;;;;;7.28;1.70;;;15.60;99.90;;;;;;5134942;27;20046;-82
2023/08/01 05:04:21;;;;;;;6.63;1.92;;;15.60;99.90;;;;;;5122476;27;20073;-82
2023/08/01 05:06:46;;;;;;;3.65;1.52;;;15.60;99.90;;;;;;5106653;27;20439;-81
2023/08/01 05:09:12;;;;;;;7.95;2.03;;;15.60;99.90;;;;;;5110959;27;20042;-82
2023/08/01 05:11:39;;;;;;;10.07;1.52;;;15.60;99.90;;;;;;5125984;27;20057;-82
2023/08/01 05:14:05;;;;;;;6.30;1.88;;;15.60;99.90;;;;;;5101912;27;20050;-82
2023/08/01 05:16:31;;;;;;;6.35;1.70;;;15.60;99.90;;;;;;5145327;27;20038;-82
2023/08/01 05:18:56;;;;;;;5.25;1.52;;;15.60;99.90;;;;;;5114164;27;20039;-81
2023/08/01 05:21:22;;;;;;;6.95;1.83;;;15.60;99.90;;;;;;5137909;27;20407;-82
2023/08/01 05:23:48;;;;;;;6.93;1.45;;;15.60;99.90;;;;;;5121947;27;20046;-82
2023/08/01 05:26:13;;;;;;;5.10;1.30;;;15.70;99.90;;;;;;5140858;27;20093;-82
2023/08/01 05:28:39;;;;;;;7.53;1.60;;;15.70;99.90;;;;;;5138090;27;20031;-82
2023/08/01 05:31:04;;;;;;;8.45;1.83;;;15.70;99.90;;;;;;5120800;27;20039;-82
2023/08/01 05:33:30;;;;;;;4.05;1.33;;;15.80;99.90;;;;;;5116915;27;20130;-82
2023/08/01 05:35:56;;;;;;;5.18;1.40;;;15.80;99.90;;;;;;5140218;27;20652;-82
2023/08/01 05:38:21;;;;;;;6.10;1.80;;;15.80;99.90;;;;;;5117587;27;20398;-82
2023/08/01 05:40:47;;;;;;;5.28;1.50;;;15.80;99.90;;;;;;5141938;27;20030;-82
2023/08/01 05:43:13;;;;;;;5.38;1.38;;;15.80;99.90;;;;;;5139318;27;20034;-82
2023/08/01 05:45:38;;;;;;;4.55;1.45;;;15.80;99.90;;;;;;5140685;27;20038;-82
2023/08/01 05:48:04;;;;;;;6.82;1.67;;;15.80;99.90;;;;;;5119028;27;20047;-82
2023/08/01 05:50:30;;;;;;;4.35;1.40;;;15.80;99.90;;;;;;5116876;27;20046;-82
2023/08/01 05:52:55;;;;;;;5.25;1.55;;;15.80;99.90;;;;;;5136563;27;20742;-82
2023/08/01 05:55:21;;;;;;;6.03;1.60;;;15.80;99.90;;;;;;5100267;27;20416;-82
2023/08/01 05:57:48;;;;;;;5.70;1.60;;;15.90;99.90;;;;;;5137319;27;20027;-82
2023/08/01 06:00:15;;;;;;;4.60;1.73;;;15.90;99.90;;;;;;5098844;27;20070;-82
2023/08/01 06:02:40;;;;;;;8.10;2.00;;;16.00;99.90;;;;;;5134144;27;20054;-82
2023/08/01 06:05:06;;;;;;;5.05;1.27;;;16.00;99.90;;;;;;5111461;27;20039;-82
2023/08/01 06:07:32;;;;;;;6.30;1.70;;;16.10;99.90;;;;;;5113196;27;20043;-82
2023/08/01 06:09:58;;;;;;;5.65;1.63;;;16.20;99.90;;;;;;5135135;27;20035;-82
2023/08/01 06:12:23;;;;;;;7.45;1.42;;;16.20;99.90;;;;;;5139506;27;20030;-82
2023/08/01 06:14:50;;;;;;;3.25;1.10;;;16.40;99.90;;;;;;5118860;27;20070;-82
2023/08/01 06:17:16;;;;;;;5.82;1.33;;;16.30;99.90;;;;;;5124892;27;20070;-82
2023/08/01 06:19:42;;;;;;;4.10;1.25;;;16.30;99.90;;;;;;5118851;27;20035;-82
2023/08/01 06:22:08;;;;;;;7.70;1.33;;;16.40;99.90;;;;;;5116417;27;20602;-82
2023/08/01 06:24:33;;;;;;;6.43;1.73;;;16.40;99.90;;;;;;5134950;27;20041;-82
2023/08/01 06:26:59;;;;;;;7.25;1.75;;;16.40;99.90;;;;;;5136884;27;20031;-82
2023/08/01 06:29:25;;;;;;;4.43;1.60;;;16.40;99.90;;;;;;5132702;27;20043;-81
2023/08/01 06:31:50;;;;;;;3.45;1.20;;;16.30;99.90;;;;;;5116790;28;20121;-82
2023/08/01 06:34:16;;;;;;;6.05;1.92;;;16.40;99.90;;;;;;5134528;27;20099;-82
2023/08/01 06:36:42;;;;;;;5.25;1.95;;;16.40;99.90;;;;;;5135475;27;20034;-81
2023/08/01 06:39:08;;;;;;;4.32;1.65;;;16.30;99.90;;;;;;5136339;27;20147;-82
2023/08/01 06:41:33;;;;;;;4.78;1.60;;;16.30;99.90;;;;;;5137030;27;20032;-82
2023/08/01 06:43:59;;;;;;;4.93;1.85;;;16.20;99.90;;;;;;5135788;27;20426;-82
2023/08/01 06:46:24;;;;;;;6.95;1.60;;;16.50;99.90;;;;;;5135158;27;20048;-82
2023/08/01 06:48:50;;;;;;;4.72;1.40;;;16.30;99.90;;;;;;5138088;27;20034;-81
2023/08/01 06:51:16;;;;;;;4.28;1.70;;;16.30;99.90;;;;;;5135326;27;20035;-81
2023/08/01 06:53:42;;;;;;;6.13;1.92;;;16.30;99.90;;;;;;5124042;27;20246;-81
2023/08/01 06:56:08;;;;;;;5.45;1.80;;;16.30;99.90;;;;;;5140984;27;20541;-82
2023/08/01 06:58:33;;;;;;;6.63;1.67;;;16.30;99.90;;;;;;5136843;27;20038;-82
2023/08/01 07:00:59;;;;;;;5.05;1.65;;;16.40;99.90;;;;;;5135838;27;20512;-82
2023/08/01 07:03:24;;;;;;;5.22;1.73;;;16.40;99.90;;;;;;5139611;27;20163;-82
2023/08/01 07:05:50;;;;;;;8.77;2.17;;;16.40;99.90;;;;;;5131420;27;20034;-82
2023/08/01 07:08:16;;;;;;;8.65;2.08;;;16.50;99.90;;;;;;5140200;27;20034;-82
2023/08/01 07:10:41;;;;;;;6.82;2.08;;;16.60;99.90;;;;;;5125305;27;20455;-82
2023/08/01 07:13:07;;;;;;;4.22;1.85;;;16.70;99.90;;;;;;5105801;27;20038;-82
2023/08/01 07:15:33;;;;;;;7.95;1.85;;;16.70;99.90;;;;;;5147748;27;20110;-82
2023/08/01 07:17:59;;;;;;;5.57;1.58;;;16.80;99.90;;;;;;5128259;27;20489;-81
2023/08/01 07:20:26;;;;;;;7.25;1.85;;;16.90;99.90;;;;;;5139511;27;20258;-82
2023/08/01 07:22:52;;;;;;;4.53;1.80;;;16.90;99.90;;;;;;5123105;27;20106;-82
2023/08/01 07:25:19;;;;;;;5.18;1.75;;;17.00;99.90;;;;;;5119449;27;20477;-82
2023/08/01 07:27:45;;;;;;;5.93;1.70;;;17.00;99.90;;;;;;5123535;27;20047;-82
2023/08/01 07:30:11;;;;;;;7.85;1.52;;;17.00;99.90;;;;;;5142623;27;20027;-82
2023/08/01 07:32:37;;;;;;;5.60;1.38;;;17.00;99.90;;;;;;5122798;27;20485;-82
2023/08/01 07:35:05;;;;;;;6.70;1.92;;;16.90;99.90;;;;;;5142504;27;20051;-82
2023/08/01 07:37:32;;;;;;;6.88;1.40;;;16.90;99.90;;;;;;5119266;27;20551;-82
2023/08/01 07:39:58;;;;;;;5.60;1.20;;;16.90;99.90;;;;;;5135303;27;20118;-82
2023/08/01 07:42:24;;;;;;;5.68;1.00;;;16.90;99.90;;;;;;5122639;27;20820;-81
2023/08/01 07:44:49;;;;;;;7.68;1.33;;;16.90;99.90;;;;;;5117593;27;20047;-82
2023/08/01 07:47:15;;;;;;;5.18;1.38;;;16.80;99.90;;;;;;5139567;27;20037;-82
2023/08/01 07:49:40;;;;;;;5.75;1.17;;;16.80;99.90;;;;;;5121085;27;20553;-82
2023/08/01 07:52:06;;;;;;;4.15;1.02;;;16.80;99.90;;;;;;5144902;27;20043;-82
2023/08/01 07:54:32;;;;;;;5.07;1.40;;;16.80;99.90;;;;;;5122515;27;20389;-82
2023/08/01 07:56:58;;;;;;;4.20;1.10;;;16.70;99.90;;;;;;5141612;27;20035;-82
2023/08/01 07:59:24;;;;;;;5.55;1.13;;;16.70;99.90;;;;;;5126558;27;20039;-81
2023/08/01 08:01:51;;;;;;;5.25;1.15;;;16.70;99.90;;;;;;5140611;27;20082;-81
2023/08/01 08:04:16;;;;;;;5.38;1.17;;;16.70;99.90;;;;;;5139169;27;20092;-82
2023/08/01 08:06:42;;;;;;;6.40;1.30;;;16.60;99.90;;;;;;5119203;27;20034;-82
2023/08/01 08:09:07;;;;;;;5.55;1.25;;;16.60;99.90;;;;;;5120306;27;20375;-82
2023/08/01 08:11:33;;;;;;;6.20;1.00;;;16.50;99.90;;;;;;5120075;27;20374;-82
2023/08/01 08:13:59;;;;;;;3.53;0.95;;;16.60;99.90;;;;;;5118520;27;20493;-81
2023/08/01 08:16:25;;;;;;;7.55;1.50;;;16.60;99.90;;;;;;5120689;27;20268;-82
2023/08/01 08:18:51;;;;;;;6.80;1.73;;;16.70;99.90;;;;;;5123892;27;20058;-82
2023/08/01 08:21:16;;;;;;;6.63;1.15;;;16.80;99.90;;;;;;5105858;27;20038;-82
2023/08/01 08:23:42;;;;;;;6.00;1.30;;;16.80;99.90;;;;;;5119871;27;20046;-82
2023/08/01 08:26:08;;;;;;;5.43;1.00;;;16.90;99.90;;;;;;5136466;27;20069;-82
2023/08/01 08:28:34;;;;;;;7.60;1.48;;;16.90;99.90;;;;;;5120159;27;20038;-82
2023/08/01 08:31:02;;;;;;;5.70;1.30;;;16.90;99.90;;;;;;5138539;27;20042;-82
2023/08/01 08:33:28;;;;;;;4.90;1.35;;;16.90;99.90;;;;;;5097715;27;20046;-82
2023/08/01 08:35:54;;;;;;;7.43;1.73;;;16.90;99.90;;;;;;5144637;27;20035;-81
2023/08/01 08:38:20;;;;;;;3.33;1.05;;;16.90;99.90;;;;;;5141532;27;20091;-81
2023/08/01 08:41:19;;;;;;;5.25;0.90;;;16.80;99.90;;;;;;5141440;27;20027;-82
2023/08/01 08:43:48;;;;;;;2.97;0.90;;;16.80;99.90;;;;;;5114701;27;20118;-81
2023/08/01 08:46:16;;;;;;;5.10;1.20;;;16.80;99.90;;;;;;5135404;27;20392;-81
2023/08/01 08:48:43;;;;;;;6.05;1.10;;;16.80;99.90;;;;;;5142595;27;20035;-81
2023/08/01 08:51:10;;;;;;;3.00;0.80;;;16.80;99.90;;;;;;5143104;27;20051;-82
2023/08/01 08:53:36;;;;;;;5.80;1.30;;;16.80;99.90;;;;;;5121334;27;20042;-82
2023/08/01 08:56:02;;;;;;;3.50;1.02;;;16.80;99.90;;;;;;5120725;27;20494;-81
2023/08/01 08:58:31;;;;;;;6.60;1.00;;;16.80;99.90;;;;;;5139236;27;20481;-82
2023/08/01 09:01:00;;;;;;;4.75;1.10;;;16.80;99.90;;;;;;5122257;27;20030;-82
2023/08/01 09:03:26;;;;;;;4.30;1.13;;;16.80;99.90;;;;;;5138838;27;20325;-82
2023/08/01 09:05:59;;;;;;;3.17;1.20;;;16.80;99.90;;;;;;5103592;27;20074;-82
2023/08/01 09:08:26;;;;;;;4.50;1.10;;;16.90;99.90;;;;;;5111294;27;20250;-81
2023/08/01 09:10:52;;;;;;;6.57;1.17;;;17.00;99.90;;;;;;5120521;27;20450;-80
2023/08/01 09:13:18;;;;;;;4.43;1.20;;;17.10;99.90;;;;;;5114114;27;20039;-82
2023/08/01 09:15:44;;;;;;;2.72;0.80;;;17.20;99.90;;;;;;5096981;27;20111;-82
2023/08/01 09:18:10;;;;;;;3.33;1.10;;;17.30;99.90;;;;;;5119228;27;20054;-82
2023/08/01 09:20:49;;;;;;;6.15;1.20;;;17.40;99.90;;;;;;5135329;27;20039;-82
2023/08/01 09:23:16;;;;;;;7.10;1.48;;;17.50;99.90;;;;;;5133070;27;20051;-82
2023/08/01 09:25:43;;;;;;;3.85;1.33;;;17.60;99.90;;;;;;5116147;27;20561;-83
2023/08/01 09:28:18;;;;;;;4.20;1.10;;;17.70;99.90;;;;;;5132343;27;20039;-82
2023/08/01 09:30:55;;;;;;;3.53;0.95;;;17.70;99.90;;;;;;5126530;27;20039;-82
2023/08/01 09:33:22;;;;;;;3.65;1.20;;;17.80;99.90;;;;;;5136197;27;20043;-81
2023/08/01 09:35:50;;;;;;;6.18;1.38;;;17.80;99.90;;;;;;5124341;27;20143;-81
2023/08/01 09:38:16;;;;;;;3.63;1.20;;;17.70;99.90;;;;;;5118238;27;20035;-81
2023/08/01 09:40:44;;;;;;;3.65;0.85;;;17.60;99.90;;;;;;5139706;27;20065;-81
2023/08/01 09:43:13;;;;;;;3.05;1.20;;;17.70;99.90;;;;;;5135783;27;20058;-81
2023/08/01 09:45:50;;;;;;;4.20;1.00;;;17.60;99.90;;;;;;5122720;27;20077;-81
2023/08/01 09:48:29;;;;;;;6.03;1.52;;;17.70;99.90;;;;;;5118220;27;20035;-81
2023/08/01 09:51:12;;;;;;;4.78;1.10;;;17.80;99.90;;;;;;5139813;27;20379;-82
2023/08/01 09:53:54;;;;;;;5.32;1.20;;;17.80;99.90;;;;;;5137290;27;20035;-81
2023/08/01 09:56:23;;;;;;;3.38;1.10;;;17.90;99.90;;;;;;5102060;27;20049;-82
2023/08/01 09:58:50;;;;;;;2.85;0.90;;;18.00;99.90;;;;;;5101603;27;20031;-82
2023/08/01 10:01:17;;;;;;;3.83;1.20;;;17.90;99.90;;;;;;5116264;27;20382;-82
2023/08/01 10:03:49;;;;;;;4.22;1.00;;;17.90;99.90;;;;;;5108664;27;20054;-82
2023/08/01 10:06:28;;;;;;;5.55;0.90;;;17.80;99.90;;;;;;5118731;27;20039;-82
2023/08/01 10:08:53;;;;;;;3.28;1.02;;;17.80;99.90;;;;;;5142213;27;20039;-82
2023/08/01 10:11:22;;;;;;;4.10;1.30;;;17.80;99.90;;;;;;5118578;27;20090;-82
2023/08/01 10:13:48;;;;;;;6.35;1.27;;;17.80;99.90;;;;;;5137369;27;20041;-82
2023/08/01 10:16:14;;;;;;;5.25;1.13;;;17.80;99.90;;;;;;5119260;27;20039;-82
2023/08/01 10:18:40;;;;;;;2.97;1.02;;;17.80;99.90;;;;;;5107560;27;20087;-82
2023/08/01 10:21:08;;;;;;;4.68;1.33;;;17.80;99.90;;;;;;5134864;27;20066;-82
2023/08/01 10:23:34;;;;;;;6.35;1.23;;;17.70;99.90;;;;;;5107714;27;20473;-82
2023/08/01 10:26:02;;;;;;;6.07;1.63;;;17.70;99.90;;;;;;5113649;27;20034;-82
2023/08/01 10:28:36;;;;;;;7.65;2.35;;;17.60;99.90;;;;;;5118073;27;20114;-81
2023/08/01 10:31:15;;;;;;;6.97;1.60;;;17.50;99.90;;;;;;5117104;27;20291;-81
2023/08/01 10:33:43;;;;;;;5.68;1.77;;;17.40;99.90;;;;;;5118924;28;20031;-81
2023/08/01 10:36:17;;;;;;;4.38;1.48;;;17.40;99.90;;;;;;5124093;27;20077;-82
2023/08/01 10:38:59;;;;;;;6.43;1.60;;;17.40;99.90;;;;;;5138246;27;20053;-82
2023/08/01 10:41:34;;;;;;;4.82;1.38;;;17.40;99.90;;;;;;5125135;27;20058;-82
2023/08/01 10:44:10;;;;;;;5.10;1.75;;;17.50;99.90;;;;;;5126357;27;20489;-82
2023/08/01 10:47:05;;;;;;;6.72;2.10;;;17.60;99.90;;;;;;5128296;27;20041;-82
2023/08/01 10:49:42;;;;;;;7.28;2.10;;;17.80;99.90;;;;;;5104522;27;20054;-82
2023/08/01 10:52:23;;;;;;;7.72;2.58;;;18.10;99.90;;;;;;5144663;27;20420;-83
2023/08/01 10:54:57;;;;;;;9.07;2.05;;;18.30;99.90;;;;;;5144896;27;20134;-82
2023/08/01 10:57:23;;;;;;;8.68;2.70;;;18.50;99.90;;;;;;5137864;27;20043;-82
2023/08/01 10:59:49;;;;;;;7.40;2.42;;;18.70;99.90;;;;;;5144897;27;20122;-82
2023/08/01 11:02:21;;;;;;;11.90;2.15;;;18.60;99.90;;;;;;5137978;27;20142;-82
2023/08/01 11:05:02;;;;;;;6.22;1.25;;;18.50;99.90;;;;;;5100845;27;20469;-82
2023/08/01 11:07:28;;;;;;;4.13;1.10;;;18.30;99.90;;;;;;5126929;27;20038;-82
2023/08/01 11:10:11;;;;;;;3.42;0.90;;;18.20;99.90;;;;;;5115686;27;20682;-82
2023/08/01 11:12:39;;;;;;;9.07;1.42;;;18.00;99.90;;;;;;5122230;27;20034;-82
2023/08/01 11:15:09;;;;;;;5.72;1.40;;;17.90;99.90;;;;;;5122384;27;20983;-81
2023/08/01 11:17:39;;;;;;;7.75;1.42;;;17.80;99.90;;;;;;5141510;27;20039;-82
2023/08/01 11:20:08;;;;;;;7.88;1.88;;;17.90;99.90;;;;;;5104603;27;20047;-82
2023/08/01 11:22:34;;;;;;;8.00;1.65;;;17.90;99.90;;;;;;5126147;27;20039;-81
2023/08/01 11:25:00;;;;;;;7.43;1.77;;;18.20;99.90;;;;;;5121331;27;20042;-81
2023/08/01 11:27:26;;;;;;;7.15;1.67;;;18.30;99.90;;;;;;5107080;27;20405;-81
2023/08/01 11:29:53;;;;;;;7.82;1.85;;;18.50;99.90;;;;;;5140108;27;20074;-81
2023/08/01 11:32:22;;;;;;;5.93;1.23;;;18.50;99.90;;;;;;5138420;27;20146;-80
2023/08/01 11:34:49;;;;;;;7.15;1.58;;;18.70;99.90;;;;;;5143134;27;20071;-81
2023/08/01 11:37:17;;;;;;;8.63;1.77;;;18.80;99.90;;;;;;5128591;27;20579;-81
2023/08/01 11:39:44;;;;;;;7.78;1.50;;;18.90;99.90;;;;;;5122440;27;20134;-81
2023/08/01 11:42:15;;;;;;;6.05;1.50;;;19.00;99.90;;;;;;5140278;27;20035;-79
2023/08/01 11:44:41;;;;;;;5.53;1.48;;;19.30;99.90;;;;;;5145274;27;20030;-81
2023/08/01 11:47:12;;;;;;;6.70;1.20;;;19.40;99.90;;;;;;5138425;27;20093;-84
2023/08/01 11:49:37;;;;;;;5.32;1.20;;;19.50;99.90;;;;;;5137542;27;20042;-81
2023/08/01 11:52:03;;;;;;;6.10;1.55;;;19.60;99.90;;;;;;5142662;27;20050;-80
2023/08/01 11:54:29;;;;;;;5.60;1.30;;;19.70;99.90;;;;;;5115282;27;20039;-80
2023/08/01 11:57:01;;;;;;;6.00;1.10;;;19.80;99.90;;;;;;5127286;27;20062;-80
2023/08/01 11:59:26;;;;;;;6.93;1.05;;;19.90;99.90;;;;;;5132157;27;20473;-81
2023/08/01 12:01:52;;;;;;;7.10;1.35;;;20.00;99.90;;;;;;5134822;27;20086;-81
2023/08/01 12:04:25;;;;;;;5.78;0.90;;;20.10;99.90;;;;;;5138101;27;20050;-81
2023/08/01 12:06:51;;;;;;;5.13;0.93;;;20.30;99.90;;;;;;5132627;27;20035;-82
2023/08/01 12:09:20;;;;;;;5.53;0.90;;;20.40;99.90;;;;;;5114820;27;20281;-82
2023/08/01 12:11:46;;;;;;;7.15;0.90;;;20.60;99.90;;;;;;5134290;27;20043;-81
2023/08/01 12:14:13;;;;;;;6.55;2.30;;;20.70;99.90;;;;;;5128155;27;20039;-81
2023/08/01 12:16:41;;;;;;;6.53;1.17;;;20.60;99.90;;;;;;5132947;27;20039;-81
2023/08/01 12:19:08;;;;;;;5.05;0.82;;;20.50;99.90;;;;;;5119687;27;20097;-81
2023/08/01 12:21:34;;;;;;;8.88;1.13;;;20.40;99.90;;;;;;5131841;27;20039;-81
2023/08/01 12:24:01;;;;;;;5.18;1.10;;;20.30;99.90;;;;;;5116189;27;20042;-81
2023/08/01 12:26:26;;;;;;;7.38;1.10;;;20.40;99.90;;;;;;5132190;27;20038;-82
2023/08/01 12:28:52;;;;;;;4.85;1.02;;;20.40;99.90;;;;;;5126258;27;20038;-81
2023/08/01 12:31:18;;;;;;;5.80;1.00;;;20.30;99.90;;;;;;5113323;27;20046;-80
2023/08/01 12:33:45;;;;;;;5.88;0.82;;;20.20;99.90;;;;;;5140340;27;20674;-81
2023/08/01 12:36:11;;;;;;;5.90;1.20;;;20.10;99.90;;;;;;5132015;27;20047;-81
2023/08/01 12:38:37;;;;;;;6.68;1.20;;;20.10;99.90;;;;;;5107713;27;20035;-82
2023/08/01 12:41:03;;;;;;;3.97;0.75;;;20.10;99.90;;;;;;5131222;27;20469;-81
2023/08/01 12:43:28;;;;;;;4.07;0.98;;;20.00;99.90;;;;;;5125616;27;20069;-82
2023/08/01 12:45:56;;;;;;;6.97;1.23;;;20.00;99.90;;;;;;5095953;27;20039;-82